Etusivu
METAR-TAF:

METAR-TAF

Lentoasemat :

McGregor Executive Airport

Waco, Texas, Yhdysvallat

Leveyspiiri: 31-29N, Pituuspiiri: 097-19W, korkeus merenpinnasta: 180 m

Tämänhetkinen sää

Tämä raportti tehtiin 17 minuuttia sitten, kello 23.23 UTC
Tuuli 5 kn idästä
Lämpötila 19°C
Kosteus 94%
Ilmanpaine 1015 hPa
Näkyvyys: 3.2 km
Muutamia pilviä 1900 ft:n korkeudessa
Hajonneita pilviä 3200 ft:n korkeudessa
Pilvistä 5000 ft:n korkeudessa
ukkosmyrsky, heikkoa sadetta, utua

METAR: KPWG 072323Z AUTO 10005KT 2SM -TSRA BR FEW019 BKN032 OVC050 19/18 A2997 RMK AO2 LTG DSNT NE P0031

Aika: 17:40 (23:40 UTC)


TAF: puuttuu

Säähavainnot ja -ennusteet yli 4000 lentoasemalta (METAR- ja TAF-raportit).

Käytössä olevat sääasemat on merkitty karttaan keltaisilla ja punaisilla pisteillä.

Aseta hiiri pisteen päälle nähdäksesi sääaseman nimen.

Klikkaa sitten nähdäksesi säähavainnot ja -ennusteet.

Kartan vaihtaminen: klikkaa mustalla rastilla varustettuja vihreitä pisteitä, niin voit zoomata sisään; viivalla varustettua vihreää pistettä, niin voit zoomata ulos tai vihreitä nuolia, niin pääset viereisille kartoille.


METAR-TAF: